createdAt,value
2018-04-11T00:02:29.006Z,97.80
2018-04-11T00:07:30.573Z,98.40
2018-04-11T00:12:32.888Z,98.90
2018-04-11T00:17:34.452Z,98.90
2018-04-11T00:22:36.284Z,99.00
2018-04-11T00:27:37.834Z,99.10
2018-04-11T00:32:39.385Z,99.40
2018-04-11T00:37:41.202Z,99.30
2018-04-11T00:42:43.491Z,99.00
2018-04-11T00:47:45.768Z,99.00
2018-04-11T00:53:06.548Z,98.80
2018-04-11T00:58:08.060Z,98.80
2018-04-11T01:03:10.351Z,98.60
2018-04-11T01:08:12.647Z,98.60
2018-04-11T01:13:14.896Z,99.20
2018-04-11T01:18:16.444Z,99.20
2018-04-11T01:23:17.991Z,99.30
2018-04-11T01:28:19.736Z,99.40
2018-04-11T01:33:21.259Z,99.20
2018-04-11T01:38:22.756Z,98.90
2018-04-11T01:43:25.037Z,98.60
2018-04-11T01:48:27.321Z,99.00
2018-04-11T01:53:29.600Z,99.30
2018-04-11T01:58:31.892Z,99.90
2018-04-11T02:03:34.248Z,99.40
2018-04-11T02:08:35.797Z,99.40
2018-04-11T02:13:37.413Z,99.30
2018-04-11T02:18:39.723Z,99.00
2018-04-11T02:23:41.294Z,98.90
2018-04-11T02:28:42.753Z,98.90
2018-04-11T02:33:44.359Z,98.60
2018-04-11T02:38:45.928Z,98.60
2018-04-11T02:43:47.449Z,98.60
2018-04-11T02:48:49.740Z,98.40
2018-04-11T02:53:51.270Z,98.30
2018-04-11T02:58:52.815Z,98.60
2018-04-11T03:03:54.404Z,98.60
2018-04-11T03:08:55.983Z,98.50
2018-04-11T03:13:57.517Z,98.20
2018-04-11T03:18:59.073Z,98.40
2018-04-11T03:24:00.603Z,98.90
2018-04-11T03:29:02.934Z,98.60
2018-04-11T03:34:04.459Z,98.60
2018-04-11T03:39:06.821Z,98.20
2018-04-11T03:44:08.359Z,98.20
2018-04-11T03:49:09.910Z,98.60
2018-04-11T03:54:11.492Z,97.80
2018-04-11T03:59:13.174Z,97.60
2018-04-11T04:04:14.729Z,97.40
2018-04-11T04:09:16.298Z,97.10
2018-04-11T04:30:29.211Z,97.10
2018-04-11T04:35:30.868Z,97.50
2018-04-11T04:40:33.134Z,97.40
2018-04-11T04:45:34.759Z,97.40
2018-04-11T04:50:36.265Z,97.30
2018-04-11T04:55:37.778Z,97.40
2018-04-11T05:00:39.312Z,97.20
2018-04-11T05:05:40.899Z,97.10
2018-04-11T05:10:43.172Z,96.90
2018-04-11T05:15:45.432Z,97.40
2018-04-11T05:20:46.964Z,97.30
2018-04-11T05:25:48.511Z,97.40
2018-04-11T05:30:50.750Z,97.90
2018-04-11T05:35:52.305Z,97.80
2018-04-11T05:40:53.852Z,97.90
2018-04-11T05:45:55.417Z,98.00
2018-04-11T05:50:56.944Z,98.00
2018-04-11T05:55:58.464Z,98.00
2018-04-11T06:01:00.027Z,97.90
2018-04-11T06:06:01.635Z,98.00
2018-04-11T06:11:03.179Z,98.00
2018-04-11T06:16:04.742Z,97.80
2018-04-11T06:21:06.256Z,97.90
2018-04-11T06:26:07.879Z,97.70
2018-04-11T06:31:09.455Z,97.30
2018-04-11T06:36:10.983Z,97.10
2018-04-11T06:41:12.560Z,96.70
2018-04-11T06:46:14.089Z,95.90
2018-04-11T06:51:22.820Z,95.60
2018-04-11T06:56:24.391Z,96.20
2018-04-11T07:01:25.974Z,96.30
2018-04-11T07:06:28.391Z,95.40
2018-04-11T07:11:30.005Z,95.30
2018-04-11T07:16:31.509Z,95.20
2018-04-11T07:21:33.844Z,94.70
2018-04-11T07:26:35.440Z,94.70
2018-04-11T07:31:36.964Z,94.40
2018-04-11T07:36:38.568Z,95.20
2018-04-11T07:41:40.112Z,93.90
2018-04-11T07:46:41.711Z,93.40
2018-04-11T07:51:43.219Z,91.70
2018-04-11T07:56:44.742Z,90.40
2018-04-11T08:01:46.299Z,90.00
2018-04-11T08:06:47.896Z,90.10
2018-04-11T08:11:49.461Z,89.80
2018-04-11T08:16:50.998Z,87.50
2018-04-11T08:21:52.622Z,87.80
2018-04-11T08:26:54.904Z,84.20
2018-04-11T08:31:58.121Z,83.20
2018-04-11T08:36:59.731Z,83.10
2018-04-11T08:42:01.328Z,83.10
2018-04-11T08:47:02.842Z,81.20
2018-04-11T08:52:04.432Z,80.70
2018-04-11T08:57:06.002Z,81.40
2018-04-11T09:02:07.530Z,80.10
2018-04-11T09:07:09.077Z,77.50
2018-04-11T09:12:10.735Z,75.50
2018-04-11T09:17:12.273Z,73.50
2018-04-11T09:22:13.876Z,74.60
2018-04-11T09:27:15.431Z,71.60
2018-04-11T09:32:17.067Z,68.90
2018-04-11T09:37:18.598Z,67.40
2018-04-11T09:42:20.884Z,64.30
2018-04-11T09:47:23.154Z,63.40
2018-04-11T09:52:24.692Z,63.40
2018-04-11T09:57:26.202Z,63.70
2018-04-11T10:02:28.515Z,62.20
2018-04-11T10:07:29.998Z,62.20
2018-04-11T10:12:31.523Z,62.50
2018-04-11T10:17:33.836Z,64.50
2018-04-11T10:22:35.404Z,64.40
2018-04-11T10:27:36.900Z,65.30
2018-04-11T10:32:38.411Z,68.50
2018-04-11T10:37:40.705Z,70.20
2018-04-11T10:42:43.121Z,71.20
2018-04-11T10:47:44.715Z,71.90
2018-04-11T10:52:46.253Z,71.20
2018-04-11T10:57:47.761Z,76.10
2018-04-11T11:02:49.350Z,74.80
2018-04-11T11:07:50.871Z,72.80
2018-04-11T11:12:52.437Z,72.40
2018-04-11T11:17:54.019Z,69.40
2018-04-11T11:22:55.611Z,72.20
2018-04-11T11:27:57.031Z,72.20
2018-04-11T11:32:58.588Z,69.00
2018-04-11T11:38:00.140Z,70.00
2018-04-11T11:43:02.427Z,68.20
2018-04-11T11:48:04.744Z,62.70
2018-04-11T11:53:06.285Z,62.50
2018-04-11T11:58:08.496Z,63.30
2018-04-11T12:03:09.976Z,63.30
2018-04-11T12:08:11.580Z,67.90
2018-04-11T12:13:13.107Z,63.20
2018-04-11T12:18:14.743Z,62.60
2018-04-11T12:23:17.045Z,62.00
2018-04-11T12:28:18.561Z,62.10
2018-04-11T12:33:20.132Z,63.30
2018-04-11T12:38:21.732Z,59.40
2018-04-11T12:43:24.084Z,59.00
2018-04-11T12:48:25.729Z,59.00
2018-04-11T12:53:27.264Z,57.60
2018-04-11T12:58:28.786Z,57.10
2018-04-11T13:03:30.400Z,57.40
2018-04-11T13:08:32.070Z,56.40
2018-04-11T13:13:33.569Z,53.60
2018-04-11T13:18:35.140Z,51.30
2018-04-11T13:23:36.739Z,51.50
2018-04-11T13:28:38.240Z,50.90
2018-04-11T13:33:40.508Z,47.10
2018-04-11T13:38:42.799Z,50.30
2018-04-11T13:43:45.284Z,51.20
2018-04-11T13:48:47.626Z,53.60
2018-04-11T13:53:49.175Z,53.60
2018-04-11T13:58:50.715Z,51.10
2018-04-11T14:03:52.992Z,55.70
2018-04-11T14:08:55.302Z,54.90
2018-04-11T14:13:56.778Z,54.90
2018-04-11T14:18:58.350Z,56.70
2018-04-11T14:24:06.822Z,54.50
2018-04-11T14:29:08.362Z,55.50
2018-04-11T14:34:09.957Z,58.90
2018-04-11T14:39:11.480Z,52.10
2018-04-11T14:44:13.052Z,55.00
2018-04-11T14:49:14.724Z,54.60
2018-04-11T14:54:16.479Z,55.40
2018-04-11T14:59:18.061Z,56.60
2018-04-11T15:04:19.610Z,57.10
2018-04-11T15:09:21.920Z,54.90
2018-04-11T15:14:23.407Z,54.80
2018-04-11T15:19:24.982Z,54.70
2018-04-11T15:24:26.587Z,54.10
2018-04-11T15:29:28.997Z,52.70
2018-04-11T15:34:30.638Z,52.70
2018-04-11T15:39:32.190Z,52.50
2018-04-11T15:44:33.715Z,54.60
2018-04-11T15:49:35.271Z,53.40
2018-04-11T15:54:36.804Z,54.90
2018-04-11T15:59:38.370Z,54.90
2018-04-11T16:04:39.892Z,54.20
2018-04-11T16:09:41.491Z,53.20
2018-04-11T16:14:43.024Z,54.70
2018-04-11T16:19:44.588Z,55.00
2018-04-11T16:24:46.180Z,53.90
2018-04-11T16:29:47.677Z,56.90
2018-04-11T16:34:49.231Z,54.00
2018-04-11T16:39:50.903Z,56.00
2018-04-11T16:44:52.396Z,56.50
2018-04-11T16:49:53.932Z,57.20
2018-04-11T16:55:02.332Z,58.30
2018-04-11T17:00:03.874Z,57.80
2018-04-11T17:05:06.137Z,58.40
2018-04-11T17:10:07.765Z,58.30
2018-04-11T17:15:09.493Z,59.10
2018-04-11T17:20:11.734Z,60.80
2018-04-11T17:25:31.508Z,60.70
2018-04-11T17:30:51.558Z,61.20
2018-04-11T17:35:53.109Z,62.30
2018-04-11T17:40:54.787Z,61.60
2018-04-11T17:45:56.276Z,62.50
2018-04-11T17:50:57.845Z,63.00
2018-04-11T17:55:59.507Z,63.80
2018-04-11T18:01:01.109Z,63.70
2018-04-11T18:06:02.676Z,63.70
2018-04-11T18:11:04.998Z,65.00
2018-04-11T18:16:06.621Z,65.00
2018-04-11T18:21:09.003Z,66.30
2018-04-11T18:26:11.232Z,66.80
2018-04-11T18:31:12.752Z,66.80
2018-04-11T18:36:14.990Z,67.60
2018-04-11T18:41:16.533Z,67.60
2018-04-11T18:46:18.099Z,68.00
2018-04-11T18:51:19.601Z,68.80
2018-04-11T18:56:21.078Z,69.80
2018-04-11T19:01:22.578Z,70.60
2018-04-11T19:06:24.917Z,71.20
2018-04-11T19:11:26.441Z,71.20
2018-04-11T19:16:28.671Z,73.00
2018-04-11T19:21:30.263Z,72.90
2018-04-11T19:26:31.840Z,73.30
2018-04-11T19:31:33.410Z,74.00
2018-04-11T19:36:35.056Z,73.70
2018-04-11T19:41:36.607Z,74.00
2018-04-11T19:46:38.141Z,73.30
2018-04-11T19:51:40.615Z,73.00
2018-04-11T19:56:42.841Z,72.30
2018-04-11T20:01:44.556Z,72.30
2018-04-11T20:06:46.285Z,72.20
2018-04-11T20:11:47.811Z,72.40
2018-04-11T20:16:50.058Z,73.50
2018-04-11T20:21:51.616Z,73.40
2018-04-11T20:26:53.960Z,74.00
2018-04-11T20:31:56.255Z,74.10
2018-04-11T20:36:57.748Z,74.10
2018-04-11T20:41:59.248Z,74.60
2018-04-11T20:47:00.707Z,74.80
2018-04-11T20:52:02.215Z,74.90
2018-04-11T20:57:04.485Z,75.90
2018-04-11T21:02:06.901Z,75.60
2018-04-11T21:07:08.525Z,75.60
2018-04-11T21:12:10.104Z,74.80
2018-04-11T21:17:12.588Z,74.40
2018-04-11T21:22:14.114Z,74.40
2018-04-11T21:27:15.645Z,74.30
2018-04-11T21:32:18.037Z,75.30
2018-04-11T21:37:20.356Z,75.70
2018-04-11T21:42:21.937Z,75.70
2018-04-11T21:47:23.540Z,75.50
2018-04-11T21:52:25.092Z,75.60
2018-04-11T21:57:26.702Z,75.70
2018-04-11T22:02:28.991Z,76.10
2018-04-11T22:07:30.531Z,76.00
2018-04-11T22:12:32.104Z,75.80
2018-04-11T22:17:33.655Z,75.30
2018-04-11T22:22:35.163Z,75.10
2018-04-11T22:27:36.780Z,75.30
2018-04-11T22:32:38.317Z,75.60
2018-04-11T22:37:39.905Z,75.50
2018-04-11T22:42:41.432Z,76.20
2018-04-11T22:47:43.736Z,77.50
2018-04-11T22:52:45.297Z,77.50
2018-04-11T22:57:46.827Z,78.00
2018-04-11T23:02:48.325Z,78.40
2018-04-11T23:07:50.600Z,78.30
2018-04-11T23:12:53.069Z,78.40
2018-04-11T23:17:54.607Z,78.40
2018-04-11T23:22:56.179Z,78.40
2018-04-11T23:27:57.721Z,78.30
2018-04-11T23:32:59.261Z,78.30
2018-04-11T23:38:01.559Z,77.90
2018-04-11T23:43:03.097Z,77.90
2018-04-11T23:48:04.636Z,77.90
2018-04-11T23:53:06.222Z,77.50
2018-04-11T23:58:07.745Z,77.60
